createdAt,value
2022-08-27T00:00:15.241Z,12.15
2022-08-27T00:02:42.962Z,15.07
2022-08-27T00:05:13.885Z,12.57
2022-08-27T00:07:41.636Z,15.50
2022-08-27T00:10:09.877Z,12.93
2022-08-27T00:12:37.565Z,11.90
2022-08-27T00:15:06.448Z,14.63
2022-08-27T00:17:34.193Z,12.18
2022-08-27T00:20:01.832Z,14.30
2022-08-27T00:22:29.143Z,14.48
2022-08-27T00:24:56.350Z,14.75
2022-08-27T00:27:23.543Z,15.00
2022-08-27T00:29:51.026Z,15.05
2022-08-27T00:32:18.419Z,13.13
2022-08-27T00:34:45.703Z,14.90
2022-08-27T00:37:13.111Z,14.32
2022-08-27T00:39:40.588Z,12.43
2022-08-27T00:42:07.823Z,14.50
2022-08-27T00:44:35.241Z,15.50
2022-08-27T00:47:05.589Z,14.18
2022-08-27T00:49:42.048Z,12.95
2022-08-27T00:52:29.496Z,13.75
2022-08-27T00:55:09.120Z,13.50
2022-08-27T00:57:40.751Z,12.80
2022-08-27T01:00:10.031Z,13.57
2022-08-27T01:02:37.247Z,10.82
2022-08-27T01:05:09.213Z,16.20
2022-08-27T01:07:38.758Z,13.35
2022-08-27T01:10:07.521Z,11.95
2022-08-27T01:12:35.263Z,14.73
2022-08-27T01:15:06.532Z,14.45
2022-08-27T01:17:34.930Z,12.50
2022-08-27T01:20:04.459Z,12.48
2022-08-27T01:22:43.797Z,11.25
2022-08-27T01:25:13.172Z,13.82
2022-08-27T01:27:41.599Z,17.42
2022-08-27T01:30:10.401Z,12.32
2022-08-27T01:32:37.667Z,12.15
2022-08-27T01:35:06.469Z,12.95
2022-08-27T01:37:35.063Z,14.75
2022-08-27T01:40:02.659Z,14.07
2022-08-27T01:42:34.220Z,14.80
2022-08-27T01:45:05.722Z,14.15
2022-08-27T01:47:33.244Z,11.73
2022-08-27T01:50:00.558Z,13.75
2022-08-27T01:52:28.946Z,13.77
2022-08-27T01:54:56.314Z,12.52
2022-08-27T01:57:26.021Z,12.00
2022-08-27T01:59:56.376Z,11.00
2022-08-27T02:02:23.669Z,12.57
2022-08-27T02:04:52.067Z,12.25
2022-08-27T02:07:19.518Z,11.27
2022-08-27T02:09:46.786Z,12.88
2022-08-27T02:12:13.995Z,13.55
2022-08-27T02:14:41.449Z,14.05
2022-08-27T02:17:08.654Z,16.63
2022-08-27T02:19:35.836Z,13.70
2022-08-27T02:22:03.204Z,12.45
2022-08-27T02:24:30.488Z,10.30
2022-08-27T02:26:58.041Z,10.48
2022-08-27T02:29:25.836Z,13.32
2022-08-27T02:31:53.062Z,12.07
2022-08-27T02:34:20.267Z,11.13
2022-08-27T02:36:47.769Z,11.52
2022-08-27T02:39:15.073Z,13.02
2022-08-27T02:41:42.276Z,10.90
2022-08-27T02:44:11.264Z,10.85
2022-08-27T02:46:41.669Z,10.88
2022-08-27T02:49:09.944Z,10.13
2022-08-27T02:51:37.608Z,9.85
2022-08-27T02:54:06.334Z,11.10
2022-08-27T02:56:36.938Z,10.80
2022-08-27T02:59:04.331Z,14.40
2022-08-27T03:01:31.605Z,11.98
2022-08-27T03:03:58.935Z,13.98
2022-08-27T03:06:26.266Z,11.40
2022-08-27T03:08:53.740Z,13.63
2022-08-27T03:11:23.559Z,12.13
2022-08-27T03:13:50.996Z,13.10
2022-08-27T03:16:18.273Z,9.52
2022-08-27T03:18:45.948Z,12.00
2022-08-27T03:21:20.963Z,10.70
2022-08-27T03:23:48.748Z,12.52
2022-08-27T03:26:16.220Z,13.05
2022-08-27T03:28:43.616Z,10.18
2022-08-27T03:31:15.525Z,13.05
2022-08-27T03:33:43.693Z,11.52
2022-08-27T03:36:10.896Z,14.93
2022-08-27T03:38:38.537Z,13.27
2022-08-27T03:41:06.580Z,12.32
2022-08-27T03:43:33.780Z,11.57
2022-08-27T03:46:02.488Z,15.25
2022-08-27T03:48:30.725Z,10.90
2022-08-27T03:50:57.958Z,13.07
2022-08-27T03:53:26.010Z,11.43
2022-08-27T03:55:53.373Z,10.32
2022-08-27T03:58:20.598Z,12.90
2022-08-27T04:00:48.526Z,12.27
2022-08-27T04:03:16.144Z,11.95
2022-08-27T04:05:45.445Z,12.85
2022-08-27T04:08:13.457Z,13.38
2022-08-27T04:10:43.860Z,12.65
2022-08-27T04:13:11.108Z,13.43
2022-08-27T04:15:42.596Z,12.32
2022-08-27T04:18:10.114Z,11.93
2022-08-27T04:20:37.427Z,14.05
2022-08-27T04:23:05.095Z,14.82
2022-08-27T04:25:33.140Z,9.68
2022-08-27T04:28:00.378Z,11.27
2022-08-27T04:30:27.652Z,12.63
2022-08-27T04:32:54.967Z,11.80
2022-08-27T04:35:22.174Z,13.57
2022-08-27T04:37:49.410Z,15.63
2022-08-27T04:40:17.111Z,10.82
2022-08-27T04:42:44.468Z,11.30
2022-08-27T04:45:11.820Z,11.32
2022-08-27T04:47:39.145Z,11.30
2022-08-27T04:50:07.028Z,11.95
2022-08-27T04:52:40.927Z,9.52
2022-08-27T04:55:08.702Z,12.07
2022-08-27T04:57:37.969Z,11.18
2022-08-27T05:00:07.376Z,11.15
2022-08-27T05:02:34.750Z,11.93
2022-08-27T05:05:01.991Z,11.23
2022-08-27T05:07:29.319Z,11.88
2022-08-27T05:09:56.582Z,11.05
2022-08-27T05:12:23.803Z,13.55
2022-08-27T05:14:50.987Z,11.20
2022-08-27T05:17:18.250Z,13.48
2022-08-27T05:19:45.474Z,14.27
2022-08-27T05:22:12.711Z,12.63
2022-08-27T05:24:39.959Z,12.32
2022-08-27T05:27:07.132Z,12.68
2022-08-27T05:29:37.054Z,12.00
2022-08-27T05:32:05.182Z,10.65
2022-08-27T05:34:32.424Z,15.18
2022-08-27T05:36:59.644Z,12.00
2022-08-27T05:39:26.983Z,10.50
2022-08-27T05:41:57.106Z,9.95
2022-08-27T05:44:41.415Z,12.35
2022-08-27T05:47:09.304Z,10.55
2022-08-27T05:49:36.552Z,11.00
2022-08-27T05:52:03.924Z,13.77
2022-08-27T05:54:31.318Z,13.15
2022-08-27T05:56:58.510Z,11.15
2022-08-27T05:59:44.431Z,13.13
2022-08-27T06:02:11.739Z,12.70
2022-08-27T06:04:38.996Z,9.15
2022-08-27T06:07:09.269Z,9.52
2022-08-27T06:09:36.503Z,10.70
2022-08-27T06:12:03.925Z,10.13
2022-08-27T06:14:31.431Z,11.23
2022-08-27T06:17:00.961Z,12.95
2022-08-27T06:19:28.168Z,11.57
2022-08-27T06:22:00.295Z,12.93
2022-08-27T06:24:36.980Z,10.35
2022-08-27T06:27:04.427Z,10.93
2022-08-27T06:29:31.941Z,10.50
2022-08-27T06:31:59.124Z,10.77
2022-08-27T06:34:26.508Z,12.77
2022-08-27T06:36:54.394Z,11.98
2022-08-27T06:39:21.671Z,12.52
2022-08-27T06:41:50.449Z,10.18
2022-08-27T06:44:17.709Z,13.57
2022-08-27T06:46:45.103Z,8.35
2022-08-27T06:49:13.460Z,9.18
2022-08-27T06:51:41.225Z,10.27
2022-08-27T06:54:10.495Z,10.88
2022-08-27T06:56:38.054Z,11.40
2022-08-27T06:59:11.687Z,8.50
2022-08-27T07:01:41.651Z,11.48
2022-08-27T07:04:10.383Z,11.55
2022-08-27T07:06:39.140Z,10.38
2022-08-27T07:09:07.156Z,12.90
2022-08-27T07:11:34.383Z,13.48
2022-08-27T07:14:01.673Z,12.80
2022-08-27T07:16:29.615Z,12.05
2022-08-27T07:19:00.992Z,11.48
2022-08-27T07:21:31.124Z,13.40
2022-08-27T07:23:59.774Z,13.13
2022-08-27T07:26:27.226Z,12.10
2022-08-27T07:28:54.503Z,10.88
2022-08-27T07:31:22.837Z,13.02
2022-08-27T07:33:52.859Z,11.07
2022-08-27T07:36:21.249Z,8.88
2022-08-27T07:38:48.522Z,12.05
2022-08-27T07:41:31.287Z,10.48
2022-08-27T07:44:20.446Z,11.15
2022-08-27T07:46:49.041Z,10.32
2022-08-27T07:49:19.587Z,10.35
2022-08-27T07:51:47.092Z,13.38
2022-08-27T07:54:14.645Z,17.10
2022-08-27T07:56:42.383Z,16.15
2022-08-27T07:59:11.847Z,15.75
2022-08-27T08:01:39.377Z,12.88
2022-08-27T08:04:06.602Z,12.27
2022-08-27T08:06:38.217Z,13.05
2022-08-27T08:09:06.523Z,16.52
2022-08-27T08:11:36.404Z,12.45
2022-08-27T08:14:03.628Z,13.07
2022-08-27T08:16:31.864Z,11.05
2022-08-27T08:19:00.367Z,13.63
2022-08-27T08:21:27.751Z,11.25
2022-08-27T08:23:55.098Z,11.40
2022-08-27T08:26:23.159Z,11.18
2022-08-27T08:28:50.392Z,9.75
2022-08-27T08:31:17.808Z,11.80
2022-08-27T08:33:46.975Z,15.90
2022-08-27T08:36:15.571Z,13.43
2022-08-27T08:38:43.766Z,11.50
2022-08-27T08:41:34.436Z,10.95
2022-08-27T08:44:05.688Z,13.23
2022-08-27T08:46:47.533Z,11.38
2022-08-27T08:49:35.183Z,12.50
2022-08-27T08:52:30.608Z,11.48
2022-08-27T08:55:03.654Z,10.50
2022-08-27T08:57:37.417Z,11.63
2022-08-27T09:00:10.085Z,10.02
2022-08-27T09:02:37.272Z,10.95
2022-08-27T09:05:06.148Z,15.07
2022-08-27T09:07:36.985Z,11.73
2022-08-27T09:10:11.135Z,10.15
2022-08-27T09:12:38.516Z,11.50
2022-08-27T09:15:14.148Z,11.82
2022-08-27T09:17:42.288Z,9.95
2022-08-27T09:20:13.209Z,13.80
2022-08-27T09:22:59.456Z,14.07
2022-08-27T09:25:29.414Z,9.75
2022-08-27T09:27:58.144Z,13.10
2022-08-27T09:30:30.698Z,10.70
2022-08-27T09:32:58.260Z,14.48
2022-08-27T09:35:27.003Z,17.35
2022-08-27T09:37:57.913Z,11.73
2022-08-27T09:40:33.539Z,11.27
2022-08-27T09:43:08.326Z,11.88
2022-08-27T09:45:36.114Z,11.43
2022-08-27T09:48:07.517Z,20.23
2022-08-27T09:50:47.125Z,15.38
2022-08-27T09:53:20.826Z,14.67
2022-08-27T09:55:49.241Z,17.73
2022-08-27T09:58:19.445Z,17.02
2022-08-27T10:00:47.495Z,19.35
2022-08-27T10:03:15.069Z,18.63
2022-08-27T10:05:50.720Z,21.40
2022-08-27T10:08:18.264Z,17.77
2022-08-27T10:10:53.177Z,19.65
2022-08-27T10:13:41.488Z,20.67
2022-08-27T10:16:28.557Z,16.70
2022-08-27T10:19:13.904Z,23.08
2022-08-27T10:21:45.509Z,21.33
2022-08-27T10:24:20.453Z,22.45
2022-08-27T10:27:09.837Z,15.20
2022-08-27T10:29:42.354Z,18.65
2022-08-27T10:32:16.654Z,22.27
2022-08-27T10:34:54.516Z,22.52
2022-08-27T10:37:40.685Z,18.65
2022-08-27T10:40:14.719Z,22.45
2022-08-27T10:42:57.679Z,14.30
2022-08-27T10:45:48.693Z,18.77
2022-08-27T10:48:15.886Z,19.25
2022-08-27T10:50:45.902Z,19.63
2022-08-27T10:53:21.241Z,20.20
2022-08-27T10:55:54.095Z,20.80
2022-08-27T10:58:36.541Z,25.80
2022-08-27T11:01:06.951Z,22.85
2022-08-27T11:03:34.219Z,16.77
2022-08-27T11:06:04.294Z,19.45
2022-08-27T11:08:40.966Z,14.87
2022-08-27T11:11:51.762Z,17.50
2022-08-27T11:14:02.416Z,11.70
2022-08-27T11:16:46.006Z,11.68
2022-08-27T11:19:23.951Z,16.05
2022-08-27T11:22:03.436Z,17.75
2022-08-27T11:24:36.409Z,13.90
2022-08-27T11:27:05.585Z,12.07
2022-08-27T11:29:37.534Z,15.43
2022-08-27T11:32:04.901Z,14.82
2022-08-27T11:34:42.094Z,14.40
2022-08-27T11:37:09.283Z,17.35
2022-08-27T11:39:39.251Z,11.82
2022-08-27T11:42:15.748Z,11.82
2022-08-27T11:44:47.161Z,15.75
2022-08-27T11:47:16.616Z,16.25
2022-08-27T11:49:46.088Z,14.10
2022-08-27T11:52:13.920Z,9.63
2022-08-27T11:54:49.007Z,12.52
2022-08-27T11:57:17.869Z,12.43
2022-08-27T11:59:45.135Z,13.68
2022-08-27T12:02:29.636Z,14.40
2022-08-27T12:05:10.855Z,13.48
2022-08-27T12:07:40.099Z,10.45
2022-08-27T12:10:17.233Z,12.10
2022-08-27T12:12:52.538Z,15.10
2022-08-27T12:15:32.914Z,12.93
2022-08-27T12:18:06.450Z,15.10
2022-08-27T12:20:46.471Z,10.68
2022-08-27T12:23:40.162Z,13.52
2022-08-27T12:26:28.172Z,14.30
2022-08-27T12:29:14.519Z,10.48
2022-08-27T12:31:43.470Z,9.68
2022-08-27T12:34:19.668Z,9.73
2022-08-27T12:36:52.546Z,9.25
2022-08-27T12:39:24.907Z,8.70
2022-08-27T12:41:52.135Z,8.93
2022-08-27T12:44:27.317Z,7.32
2022-08-27T12:47:02.851Z,6.97
2022-08-27T12:49:55.091Z,7.97
2022-08-27T12:52:26.210Z,10.57
2022-08-27T12:55:01.631Z,7.28
2022-08-27T12:57:41.551Z,8.38
2022-08-27T13:00:19.042Z,8.05
2022-08-27T13:03:06.954Z,8.68
2022-08-27T13:05:42.519Z,8.45
2022-08-27T13:08:23.164Z,9.85
2022-08-27T13:10:51.235Z,11.25
2022-08-27T13:13:20.221Z,11.13
2022-08-27T13:15:49.182Z,10.85
2022-08-27T13:18:16.890Z,8.40
2022-08-27T13:20:47.379Z,5.65
2022-08-27T13:23:27.392Z,8.70
2022-08-27T13:25:56.334Z,8.23
2022-08-27T13:28:25.244Z,9.63
2022-08-27T13:30:52.753Z,8.23
2022-08-27T13:33:28.517Z,8.20
2022-08-27T13:35:57.789Z,6.65
2022-08-27T13:38:27.017Z,11.98
2022-08-27T13:41:01.970Z,7.13
2022-08-27T13:43:35.408Z,10.07
2022-08-27T13:46:05.659Z,11.07
2022-08-27T13:51:00.006Z,6.82
2022-08-27T13:53:50.296Z,9.18
2022-08-27T13:56:26.623Z,6.97
2022-08-27T13:58:53.959Z,8.25
2022-08-27T14:01:31.289Z,8.25
2022-08-27T14:04:05.066Z,9.25
2022-08-27T14:06:39.673Z,9.07
2022-08-27T14:09:12.719Z,8.70
2022-08-27T14:11:39.998Z,8.38
2022-08-27T14:14:07.400Z,7.22
2022-08-27T14:16:35.431Z,8.00
2022-08-27T14:19:10.589Z,7.18
2022-08-27T14:21:39.721Z,11.23
2022-08-27T14:24:07.817Z,9.95
2022-08-27T14:26:35.428Z,9.68
2022-08-27T14:29:02.754Z,7.60
2022-08-27T14:31:38.963Z,10.02
2022-08-27T14:34:08.488Z,8.82
2022-08-27T14:36:37.904Z,6.75
2022-08-27T14:39:05.645Z,9.30
2022-08-27T14:41:33.601Z,7.93
2022-08-27T14:44:00.863Z,13.65
2022-08-27T14:46:29.443Z,10.02
2022-08-27T14:48:57.807Z,10.05
2022-08-27T14:51:26.495Z,8.95
2022-08-27T14:53:54.350Z,9.57
2022-08-27T14:56:21.965Z,8.23
2022-08-27T14:58:49.446Z,8.63
2022-08-27T15:01:18.248Z,9.48
2022-08-27T15:03:47.849Z,12.38
2022-08-27T15:06:15.707Z,11.77
2022-08-27T15:08:44.695Z,10.00
2022-08-27T15:11:20.717Z,16.55
2022-08-27T15:13:47.957Z,9.68
2022-08-27T15:16:16.171Z,16.35
2022-08-27T15:18:43.653Z,12.32
2022-08-27T15:21:21.322Z,9.77
2022-08-27T15:23:49.410Z,13.30
2022-08-27T15:26:16.873Z,9.25
2022-08-27T15:28:44.288Z,11.40
2022-08-27T15:31:11.643Z,11.55
2022-08-27T15:33:39.000Z,9.93
2022-08-27T15:36:09.680Z,9.73
2022-08-27T15:38:37.557Z,12.38
2022-08-27T15:41:05.040Z,11.93
2022-08-27T15:43:32.288Z,13.02
2022-08-27T15:45:59.656Z,10.82
2022-08-27T15:48:26.940Z,10.73
2022-08-27T15:50:54.186Z,11.15
2022-08-27T15:53:24.849Z,12.13
2022-08-27T15:55:52.292Z,13.70
2022-08-27T15:58:19.438Z,13.02
2022-08-27T16:00:46.792Z,12.27
2022-08-27T16:03:14.882Z,11.13
2022-08-27T16:05:43.442Z,12.93
2022-08-27T16:08:11.737Z,10.48
2022-08-27T16:10:39.126Z,12.23
2022-08-27T16:13:06.290Z,11.27
2022-08-27T16:15:34.940Z,16.65
2022-08-27T16:18:04.477Z,13.77
2022-08-27T16:20:31.847Z,11.80
2022-08-27T16:22:59.116Z,13.43
2022-08-27T16:25:26.572Z,16.38
2022-08-27T16:27:53.849Z,11.55
2022-08-27T16:30:22.794Z,17.45
2022-08-27T16:32:52.173Z,13.07
2022-08-27T16:35:20.670Z,12.95
2022-08-27T16:37:48.007Z,12.38
2022-08-27T16:40:15.724Z,17.45
2022-08-27T16:42:45.354Z,17.45
2022-08-27T16:45:14.367Z,14.17
2022-08-27T16:48:00.361Z,13.30
2022-08-27T16:50:34.303Z,11.25
2022-08-27T16:53:24.318Z,12.95
2022-08-27T16:55:52.046Z,13.55
2022-08-27T16:58:19.209Z,14.93
2022-08-27T17:00:47.084Z,17.08
2022-08-27T17:03:14.589Z,17.15
2022-08-27T17:05:41.800Z,14.50
2022-08-27T17:08:11.656Z,13.57
2022-08-27T17:10:40.303Z,10.18
2022-08-27T17:13:09.213Z,16.33
2022-08-27T17:15:36.473Z,13.57
2022-08-27T17:18:04.104Z,13.52
2022-08-27T17:20:32.505Z,11.15
2022-08-27T17:23:00.968Z,12.82
2022-08-27T17:25:30.213Z,16.55
2022-08-27T17:28:00.237Z,17.08
2022-08-27T17:30:27.893Z,13.93
2022-08-27T17:32:55.260Z,13.38
2022-08-27T17:35:22.421Z,9.35
2022-08-27T17:37:49.658Z,12.35
2022-08-27T17:40:17.006Z,13.75
2022-08-27T17:42:44.202Z,11.88
2022-08-27T17:45:11.598Z,12.23
2022-08-27T17:47:39.052Z,13.75
2022-08-27T17:50:06.444Z,11.77
2022-08-27T17:52:34.079Z,14.63
2022-08-27T17:55:01.293Z,12.02
2022-08-27T17:57:29.544Z,18.75
2022-08-27T18:00:08.734Z,13.25
2022-08-27T18:02:41.928Z,15.90
2022-08-27T18:05:10.681Z,13.68
2022-08-27T18:07:39.991Z,14.95
2022-08-27T18:10:07.676Z,18.35
2022-08-27T18:12:35.003Z,14.55
2022-08-27T18:15:05.341Z,15.60
2022-08-27T18:17:32.880Z,14.98
2022-08-27T18:20:00.169Z,17.98
2022-08-27T18:22:27.823Z,12.52
2022-08-27T18:25:00.211Z,10.13
2022-08-27T18:27:29.704Z,13.23
2022-08-27T18:29:57.902Z,13.07
2022-08-27T18:32:25.628Z,16.80
2022-08-27T18:34:52.933Z,12.23
2022-08-27T18:37:20.208Z,17.13
2022-08-27T18:39:47.504Z,14.30
2022-08-27T18:42:15.066Z,14.27
2022-08-27T18:44:45.717Z,13.35
2022-08-27T18:47:13.207Z,11.70
2022-08-27T18:49:40.518Z,14.13
2022-08-27T18:52:08.843Z,13.35
2022-08-27T18:54:36.162Z,15.10
2022-08-27T18:57:03.321Z,12.00
2022-08-27T18:59:30.539Z,12.20
2022-08-27T19:01:58.013Z,13.15
2022-08-27T19:04:25.830Z,13.10
2022-08-27T19:06:53.017Z,15.40
2022-08-27T19:09:21.119Z,12.10
2022-08-27T19:11:48.350Z,14.43
2022-08-27T19:14:15.537Z,15.65
2022-08-27T19:16:44.723Z,12.93
2022-08-27T19:19:13.218Z,14.05
2022-08-27T19:21:40.535Z,15.52
2022-08-27T19:24:07.988Z,14.20
2022-08-27T19:26:35.421Z,14.02
2022-08-27T19:29:02.719Z,21.17
2022-08-27T19:31:32.166Z,14.40
2022-08-27T19:34:00.388Z,15.15
2022-08-27T19:36:28.183Z,14.02
2022-08-27T19:38:55.557Z,16.90
2022-08-27T19:41:27.218Z,14.88
2022-08-27T19:43:55.141Z,15.75
2022-08-27T19:46:23.832Z,10.60
2022-08-27T19:48:51.089Z,13.40
2022-08-27T19:51:18.753Z,20.40
2022-08-27T19:53:46.003Z,13.02
2022-08-27T19:56:14.271Z,11.45
2022-08-27T19:58:42.561Z,14.25
2022-08-27T20:01:10.166Z,13.45
2022-08-27T20:03:37.396Z,14.95
2022-08-27T20:06:04.877Z,18.90
2022-08-27T20:08:32.108Z,14.85
2022-08-27T20:10:59.373Z,13.07
2022-08-27T20:13:31.074Z,19.77
2022-08-27T20:16:00.454Z,16.65
2022-08-27T20:18:27.792Z,14.38
2022-08-27T20:20:54.970Z,12.98
2022-08-27T20:23:22.247Z,14.65
2022-08-27T20:25:57.813Z,13.63
2022-08-27T20:28:43.335Z,13.00
2022-08-27T20:31:11.119Z,17.48
2022-08-27T20:33:38.335Z,12.57
2022-08-27T20:36:06.678Z,13.52
2022-08-27T20:38:33.967Z,12.93
2022-08-27T20:41:01.317Z,14.02
2022-08-27T20:43:28.551Z,14.02
2022-08-27T20:45:55.915Z,15.88
2022-08-27T20:48:23.114Z,12.40
2022-08-27T20:50:50.295Z,14.25
2022-08-27T20:53:17.716Z,12.48
2022-08-27T20:55:44.982Z,14.25
2022-08-27T20:58:30.994Z,15.02
2022-08-27T21:00:58.818Z,13.30
2022-08-27T21:03:26.084Z,13.57
2022-08-27T21:05:53.475Z,17.42
2022-08-27T21:08:21.726Z,13.65
2022-08-27T21:10:50.570Z,13.65
2022-08-27T21:13:18.205Z,18.15
2022-08-27T21:15:45.415Z,14.73
2022-08-27T21:18:12.952Z,14.90
2022-08-27T21:20:40.806Z,17.55
2022-08-27T21:23:07.995Z,17.48
2022-08-27T21:25:35.564Z,14.63
2022-08-27T21:28:04.631Z,12.80
2022-08-27T21:30:31.900Z,15.48
2022-08-27T21:32:59.140Z,16.65
2022-08-27T21:35:28.405Z,16.02
2022-08-27T21:37:56.378Z,17.48
2022-08-27T21:40:25.203Z,15.25
2022-08-27T21:42:53.121Z,16.42
2022-08-27T21:45:20.349Z,22.30
2022-08-27T21:47:47.808Z,18.92
2022-08-27T21:50:15.249Z,17.58
2022-08-27T21:52:42.488Z,15.88
2022-08-27T21:55:09.971Z,22.08
2022-08-27T21:57:37.287Z,17.92
2022-08-27T22:00:13.740Z,18.73
2022-08-27T22:02:41.085Z,16.27
2022-08-27T22:05:08.971Z,20.05
2022-08-27T22:07:36.206Z,19.15
2022-08-27T22:10:03.649Z,22.40
2022-08-27T22:12:30.796Z,22.05
2022-08-27T22:14:57.949Z,19.05
2022-08-27T22:17:25.333Z,20.05
2022-08-27T22:19:52.513Z,17.85
2022-08-27T22:22:19.708Z,14.57
2022-08-27T22:24:46.962Z,18.67
2022-08-27T22:27:14.132Z,17.40
2022-08-27T22:29:41.277Z,20.23
2022-08-27T22:32:08.627Z,16.75
2022-08-27T22:34:36.236Z,17.10
2022-08-27T22:37:03.662Z,14.65
2022-08-27T22:39:31.413Z,16.00
2022-08-27T22:41:58.579Z,16.15
2022-08-27T22:44:29.260Z,20.08
2022-08-27T22:46:57.094Z,17.58
2022-08-27T22:49:24.379Z,19.75
2022-08-27T22:51:51.547Z,17.90
2022-08-27T22:54:19.009Z,17.90
2022-08-27T22:56:46.205Z,20.45
2022-08-27T22:59:13.426Z,17.17
2022-08-27T23:01:40.807Z,18.23
2022-08-27T23:04:08.270Z,18.05
2022-08-27T23:06:35.728Z,21.42
2022-08-27T23:09:03.064Z,24.17
2022-08-27T23:11:31.793Z,16.55
2022-08-27T23:13:59.513Z,14.70
2022-08-27T23:16:27.327Z,18.80
2022-08-27T23:18:54.966Z,15.80
2022-08-27T23:21:22.149Z,16.67
2022-08-27T23:23:49.532Z,21.20
2022-08-27T23:26:35.306Z,14.35
2022-08-27T23:29:02.593Z,20.10
2022-08-27T23:31:29.835Z,17.35
2022-08-27T23:33:57.479Z,18.42
2022-08-27T23:36:24.820Z,17.15
2022-08-27T23:38:51.972Z,20.42
2022-08-27T23:41:19.142Z,18.30
2022-08-27T23:43:46.680Z,19.27
2022-08-27T23:46:14.078Z,15.75
2022-08-27T23:48:41.345Z,14.70
2022-08-27T23:51:09.363Z,13.20
2022-08-27T23:53:37.723Z,18.73
2022-08-27T23:56:05.031Z,18.58
2022-08-27T23:58:32.904Z,22.85
